Watervliet, Michigan
Current Conditions -  °F | °C
As of 3:56 PM on Thursday 27 Nov 2014 (Local Time) from KBEH Reporting Station
Light Snow Light Snow  
Wind Chill: 20°   Ceiling: 3000
Heat Index: 28°   Visibility: 3mi
Dew Point: 21°   Wind: 8mph
Humidity: 75%   Direction: 310°NW
Pressure: 30.29"   Gusts: 23mph
Location:  42.19°N, 86.26°W
Report Text: KBEH 272056Z AUTO 31007G20KT 3SM -SN FEW023 BKN030 OVC038 M02/M06 A3029 RMK AO2 P0000 T10221061
Loading
Personal Weather Stations






























Interactive Weather Map New forecast layout! Learn more

10-Day Weather Forecast

Advertisements
Track Severe Weather on mobile